Aeroporto :
LOGIN :

Iscrizione | Disclaimer

   EN    FR    IT 

 










Sommario :    VFR   VFR Marginale   IFR   IFR Intensivo   IFR Molto Intensivo
Visibilità : 
Base nubi : 
>= 8 km
>= 3000ft
5 / 8 km
1000 / 3000 ft
1500m / 5 km
500 / 1000 ft
800 / 1500m
200 / 500 ft
< 800m
< 200 ft
Simboli :   Temporali  Nebbia  Neve Forte  Precipitazioni Forti  Vento > 20 kt
SIGMETs :   Varie  Temporali  Ghiacco  Turbolenza  Onda orograficha  Ceneri Vulcaniche







- Altitudine del aeroporto : 30 ft
- Codice IATA : CFN


EIDL - Donegal

ULTIMO METAR :
  • 221230Z 16022KT 9000 FU NSC 20/07 Q0999

METARs OBSOLETI :
  • 221200Z 15022KT 7000 FU NSC 20/07 Q0999
  • 221130Z 15022KT 5000 FU NSC 19/06 Q0999
  • 221100Z 14025KT 9999 FU NSC 18/07 Q1000
  • 221030Z 16026KT 8000 FU NSC 18/07 Q1000
  • 221000Z 15026KT 9999 FU NSC 18/07 Q1000

TAF TAF EIDL
Valido dal 22 a 12 ore il 22 a 21 ore UTC


221100Z 2212/2221 15020KT 9999 SCT020
TEMPO 2212/2218 15025G35KT
BECMG 2218/2221 12012KT
Nessun NOTAM noto per questo aeroporto.



MetMap, La meteo Aeronautica in un colpo d'occhio ! - Copyright ORBIFLY Dicembre 2007 - Disclaimer

ORBIFLY MET'MAP TEAM :

Programmazione e sviluppo : Alexandra Zaïnal
Concezione e sviluppo : Baudouin d'Aumeries
Co-Programmazione e sviluppo : Marc-Olivier Méhu
Supporto tecnico e logistico : Manuel Goepfert
Aiuto per la traduzione : Arnaldo La Scala

Contatto : metmap@orbifly.com




FONTI E CREDITI :

   NOAA